Meteo Giornale » Osservazioni meteo Italia » Pratica Di Mare

ore: 01:55 - Osservazioni Meteo Pratica Di Mare
Lat. 41° 39' N Lon. 12° 27' E Alt. 6 metri s.l.m.

molto_nuvoloso Europe/Rome

25 °C

Molto Nuvoloso

Temp. 24 Ore

20 °C

31 °C

Ovest

9.3 Km/h

Dew point 22 °C

Umidità 83 %

Visibilità  10 Km

Il sole sorge alle ore 06:07

Il sole tramonta alle ore 20:25

Data e Ora Cielo e Fenomeni T °C DP °C Um. % Pres. hPa Vis. km Vento km/h
Oggi h: 01:55 molto_nuvoloso Molto Nuvoloso 25 22 83 1010 10 O 9.3
Oggi h: 00:55 molto_nuvoloso Molto Nuvoloso 25 22 83 1010 10 N 3.7
Ieri h: 23:55 nuvoloso Nuvoloso 26 23 83 1010 10 SO 7.4
Ieri h: 22:55 nuvoloso Nuvoloso 26 23 83 1010 10 S 14.8
Ieri h: 21:55 nuvoloso Nuvoloso 26 24 88 1010 10 S 16.7
Ieri h: 20:55 molto_nuvoloso Molto Nuvoloso 26 24 88 1010 10 S/SE 20.3
Ieri h: 19:55 nuvoloso Nuvoloso 27 25 88 1010 10 S/SE 24
Ieri h: 17:55 sereno Sereno 28 23 74 1010 10 S 25.9
Ieri h: 16:55 sereno Sereno 30 23 66 1010 10 S/SE 29.6
Ieri h: 15:55 poco_nuvoloso Poco Nuvoloso 31 20 52 1011 10 S/SE 29.6
Ieri h: 13:55 sereno Sereno 30 17 45 1012 10 S 25.9
Ieri h: 12:55 sereno Sereno 30 19 51 1012 10 S 20.3
Ieri h: 11:55 sereno Sereno 29 19 54 1013 10 S 14.8
Ieri h: 10:55 sereno Sereno 28 19 58 1013 10 S 13
Ieri h: 09:55 sereno Sereno 27 17 54 1013 10 SE 18.5
Ieri h: 08:55 sereno Sereno 26 18 61 1013 10 E/SE 14.8
Ieri h: 07:55 sereno Sereno 24 18 69 1013 10 SE 14.8
Ieri h: 06:55 sereno Sereno 22 17 73 1013 10 E/SE 11.1
Ieri h: 05:55 sereno Sereno 21 17 77 1013 10 E 13
Ieri h: 04:55 sereno Sereno 20 17 82 1014 10 N/NE 9.3
Ieri h: 03:55 sereno Sereno 20 17 82 1015 10 N/NE 9.3
Ieri h: 02:55 sereno Sereno 20 17 82 1015 10 N/NE 9.3